Lulu Pass Weather Station

This weather station provides temperature, relative humidity (RH), wind speed, gust or max wind speed, and wind direction at 10014ft near Lulu Pass at the head of Fisher Creek. This data can be used with temperature and precipitation data from the Fisher Creek SNOTEL site.

This weather station was purchased by the Friends of the Avalanche Center.

If the data has not been updated recently you can view it directly on datagarrison.com

Elevation
10014ft
Jump to table bottom
Date Time Temperature
deg F
RH, % Wind Speed Wind Gust Wind Direction
01/28/20 00:00 9.3 94 8 19 W - 248
01/27/20 23:00 9.3 94 8 19 W - 268
01/27/20 22:00 9.3 94 7 17 W - 263
01/27/20 21:00 10.4 94 8 18 SW - 247
01/27/20 20:00 10.9 95 7 22 W - 258
01/27/20 19:00 11.7 95 7 16 W - 275
01/27/20 18:00 12.0 95 8 15 W - 289
01/27/20 17:00 11.7 95 10 18 W - 284
01/27/20 16:00 12.6 95 8 19 W - 278
01/27/20 15:00 13.5 96 10 19 NW - 293
01/27/20 14:00 14.5 96 11 20 NW - 298
01/27/20 13:00 15.9 96 9 16 W - 285
01/27/20 12:00 15.9 97 10 19 W - 289
01/27/20 11:00 15.4 96 9 16 NW - 296
01/27/20 10:00 15.6 96 9 15 W - 291
01/27/20 09:00 15.1 96 14 19 NW - 331
01/27/20 08:00 14.1 96 17 21 NW - 331
01/27/20 07:00 14.8 96 17 22 NW - 327
01/27/20 06:00 16.9 97 12 20 NW - 317
01/27/20 05:00 19.3 98 5 10 W - 263
01/27/20 04:00 20.2 98 5 8 NW - 306
01/27/20 03:00 20.4 98 5 17 W - 253
01/27/20 02:00 20.7 98 6 17 W - 268
01/27/20 01:00 21.7 98 5 14 W - 289
01/27/20 00:00 22.0 98 4 12 W - 256
01/26/20 23:00 22.2 98 5 12 W - 274
01/26/20 22:00 22.0 98 5 13 W - 277
01/26/20 21:00 22.1 98 6 14 W - 256
01/26/20 20:00 22.2 98 8 19 SW - 240
01/26/20 19:00 22.0 98 4 17 SW - 233
01/26/20 18:00 21.7 98 4 11 SW - 236
01/26/20 17:00 21.5 98 4 12 SW - 244
01/26/20 16:00 21.4 98 3 7 NW - 321
01/26/20 15:00 21.0 98 4 8 NW - 333
01/26/20 14:00 22.4 98 6 12 NW - 309
01/26/20 13:00 20.3 98 10 16 NW - 326
01/26/20 12:00 19.3 98 10 15 NW - 316
01/26/20 11:00 20.0 98 7 13 NW - 302
01/26/20 10:00 20.3 97 5 10 NW - 293
01/26/20 09:00 17.8 97 5 11 W - 284
01/26/20 08:00 17.3 96 5 12 W - 260
01/26/20 07:00 16.1 96 6 14 W - 274
01/26/20 06:00 15.4 96 8 17 W - 261
01/26/20 05:00 14.8 96 9 20 SW - 240
01/26/20 04:00 14.6 96 8 17 SW - 241
01/26/20 03:00 15.3 96 5 12 W - 272
01/26/20 02:00 16.0 96 7 18 W - 277
01/26/20 01:00 16.3 96 7 20 W - 268
01/26/20 00:00 16.0 96 5 10 NW - 295
01/25/20 23:00 16.0 96 5 11 W - 278